Vaaraa aiheuttavia sääilmiöitä ei ole odotettavissa.    Ei varoituksia

Webkamera Lisätietoa Webcam


Yksityisiä sääasemia lähellä:

Sääasema Ruovesi, Lehtissaari

Sääasema Juupajoki

Sääasema Orivesi

Sääasema Muurame

Sääasema Jyväskylä

Sääasema Vihtavuori


Löydät sääaseman tiedot myös:

Finland Weather Exchange

European Weather Network

Weather Underground

AWEKAS



Säätiedot lähimmiltä METAR asemilta

   
EFHA - Halli (Fin-Afb), Finland
Etäisyys asemalta: Kaakko 25 km
Päivitetty: 20.10.2018 20:50
Sumua, Pilvistä  
Sumua, Pilvistä  
   Tuuli: Etelä 1.5 m/s
Tuuli: Etelä 1.5 m/s
Lämpötila: 5°C
Tuulen hyytävyys: 4°C
Kastepiste: 5°C
Kosteus: 100%
Ilmanpaine: 1020 hPa
Pilvisyys: Pilvistä
Näkyvyys: 1 km
Pilvitiedot: Pilvistä 61 m
EFHA 201750Z AUTO 18003KT 0600 FG OVC002 05/05 Q1020
EFJY - Jyvaskyla (Mil/Civ), Finland
Etäisyys asemalta: Koillinen 75 km
Päivitetty: 20.10.2018 20:50
Pilvistä  
Pilvistä  
   Tuuli: Etelälounas 1.5 m/s
Tuuli: Etelälounas 1.5 m/s
Lämpötila: 5°C
Tuulen hyytävyys: 4°C
Kastepiste: 4°C
Kosteus: 93%
Ilmanpaine: 1020 hPa
Pilvisyys: Pilvistä
Näkyvyys: Enemmän kuin 10 km
Pilvitiedot: Pilvistä 91 m
EFJY 201750Z AUTO 20003KT 9999 OVC003 05/04 Q1020
EFTP - Tampere/Pirkkala, Finland
Etäisyys asemalta: Lounas 81 km
Päivitetty: 20.10.2018 20:50
Selkeää  
Selkeää  
   Tuuli: Etelälounas 1.5 m/s
Tuuli: Etelälounas 1.5 m/s
Lämpötila: 5°C
Tuulen hyytävyys: 4°C
Kastepiste: 5°C
Kosteus: 100%
Ilmanpaine: 1021 hPa
Näkyvyys: Enemmän kuin 10 km
Pilvitiedot: Selkeää
EFTP 201750Z AUTO 20003KT CAVOK 05/05 Q1021
EFSI - Seinajoki-Ilmajoki, Finland
Etäisyys asemalta: Luode 114 km
Päivitetty: 20.10.2018 20:50
Selkeää  
Selkeää  
   Tuuli: Eteläkaakko 2.1 m/s
Tuuli: Eteläkaakko 2.1 m/s
Lämpötila: 4°C
Tuulen hyytävyys: 2°C
Kastepiste: 4°C
Kosteus: 100%
Ilmanpaine: 1019 hPa
Näkyvyys: Enemmän kuin 10 km
Pilvitiedot: Selkeää
EFSI 201750Z AUTO 16004KT CAVOK 04/04 Q1019
EFMI - Mikkeli, Finland
Etäisyys asemalta: Itäkaakko 147 km
Päivitetty: 20.10.2018 20:50
Pilvistä  
Pilvistä  
   Tuuli: Tyyntä
Tuuli: Tyyntä
Lämpötila: 5°C
Kastepiste: 5°C
Kosteus: 100%
Ilmanpaine: 1021 hPa
Pilvisyys: Pilvistä
Näkyvyys: Enemmän kuin 10 km
Pilvitiedot: Pilvistä 91 m
EFMI 201750Z AUTO 00000KT 9999 OVC003 05/05 Q1021
EFPO - Pori (Mil/Civ), Finland
Etäisyys asemalta: Länsilounas 154 km
Päivitetty: 20.10.2018 20:50
Melkein pilvistä  
Melkein pilvistä  
   Tuuli: Etelä 1.5 m/s
Tuuli: Etelä 1.5 m/s
Lämpötila: 7°C
Tuulen hyytävyys: 6°C
Kastepiste: 5°C
Kosteus: 87%
Ilmanpaine: 1020 hPa
Pilvisyys: Melkein pilvistä
Näkyvyys: Enemmän kuin 10 km
Pilvitiedot: Melkein pilvistä 3048 m
EFPO 201750Z AUTO 18003KT 9999 BKN100/// 07/05 Q1020
EFUT - Utti (Fin-Afb), Finland
Etäisyys asemalta: Kaakko 180 km
Päivitetty: 20.10.2018 20:50
Utua, Melkein pilvistä  
Utua, Melkein pilvistä  
   Tuuli: Tyyntä
Tuuli: Tyyntä
Lämpötila: 4°C
Kastepiste: 4°C
Kosteus: 100%
Ilmanpaine: 1021 hPa
Pilvisyys: Melkein pilvistä
Näkyvyys: 2 km
Pilvitiedot: Puolipilvistä 213 m,
Melkein pilvistä 3383 m
EFUT 201750Z AUTO 00000KT 2400 BR SCT007 BKN111 04/04 Q1021
EFVA - Vaasa, Finland
Etäisyys asemalta: Luode 180 km
Päivitetty: 20.10.2018 20:50
Selkeää  
Selkeää  
   Tuuli: Etelä 2.1 m/s
Tuuli: Etelä 2.1 m/s
Lämpötila: 4°C
Tuulen hyytävyys: 2°C
Kastepiste: 3°C
Kosteus: 93%
Ilmanpaine: 1018 hPa
Näkyvyys: Enemmän kuin 10 km
Pilvitiedot: Selkeää
EFVA 201750Z AUTO 17004KT CAVOK 04/03 Q1018
EFHK - Helsinki/Vantaa, Finland
Etäisyys asemalta: Etelä 191 km
Päivitetty: 20.10.2018 20:50
Heikkoa sadetta, Puolipilvistä  
Heikkoa sadetta, Puolipilvistä  
   Tuuli: Vaihtelee 1 m/s
Tuuli: Vaihtelee 1 m/s
Lämpötila: 6°C
Kastepiste: 6°C
Kosteus: 100%
Ilmanpaine: 1022 hPa
Pilvisyys: Puolipilvistä
Näkyvyys: Enemmän kuin 10 km
Pilvitiedot: Puolipilvistä
EFHK 201750Z VRB02KT 9999 -RA NSC 06/06 Q1022 NOSIG

Alkuperäinen skripti  Saratoga-weather.org Sovitettu myös templatelle  Weerstation Leuven

Laitteet joita käytämme:

Sääasema
Davis VP2

Sääasemaohjelma
Cumulus

Sääaseman palvelin
HP ProBook 6460b

Palveluntarjoaja
Radicenter

Davis VP2

Cumulus

HP ProBook 6460b

Radicenter




Flag Counter Cumulus Top Weather Sites